createdAt,value
2018-12-31T15:53:37.140Z,10.20
2018-12-31T15:54:37.081Z,10.22
2018-12-31T15:55:37.135Z,10.31
2018-12-31T15:56:37.192Z,10.28
2018-12-31T15:57:37.260Z,10.22
2018-12-31T15:58:37.312Z,10.25
2018-12-31T15:59:37.372Z,10.23
2018-12-31T16:00:37.420Z,10.17
2018-12-31T16:01:37.480Z,10.17
2018-12-31T16:02:37.538Z,10.19
2018-12-31T16:03:37.604Z,10.15
2018-12-31T16:04:37.664Z,10.13
2018-12-31T16:05:37.715Z,10.13
2018-12-31T16:06:37.776Z,10.10
2018-12-31T16:07:45.410Z,10.17
2018-12-31T16:08:37.918Z,10.16
2018-12-31T16:09:37.976Z,10.16
2018-12-31T16:10:38.020Z,10.13
2018-12-31T16:11:38.088Z,10.22
2018-12-31T16:12:38.144Z,10.19
2018-12-31T16:13:38.536Z,10.12
2018-12-31T16:14:38.268Z,10.12
2018-12-31T16:15:38.336Z,10.13
2018-12-31T16:16:38.388Z,10.22
2018-12-31T16:17:38.452Z,10.19
2018-12-31T16:18:38.512Z,10.20
2018-12-31T16:19:38.602Z,10.12
2018-12-31T16:20:38.636Z,10.20
2018-12-31T16:21:38.790Z,10.15
2018-12-31T16:22:38.760Z,10.12
2018-12-31T16:23:38.893Z,10.09
2018-12-31T16:24:38.893Z,10.22
2018-12-31T16:25:39.261Z,10.07
2018-12-31T16:26:39.008Z,10.13
2018-12-31T16:27:39.072Z,10.16
2018-12-31T16:28:39.132Z,10.10
2018-12-31T16:29:39.201Z,10.22
2018-12-31T16:30:39.393Z,10.17
2018-12-31T16:31:39.321Z,10.22
2018-12-31T16:32:39.384Z,10.13
2018-12-31T16:33:39.446Z,10.23
2018-12-31T16:34:39.513Z,10.15
2018-12-31T16:35:39.577Z,10.23
2018-12-31T16:36:39.652Z,10.17
2018-12-31T16:37:39.693Z,10.22
2018-12-31T16:38:39.757Z,10.15
2018-12-31T16:39:39.834Z,10.19
2018-12-31T16:40:39.893Z,10.17
2018-12-31T16:41:39.953Z,10.19
2018-12-31T16:42:40.009Z,10.20
2018-12-31T16:43:40.080Z,10.17
2018-12-31T16:44:40.133Z,10.22
2018-12-31T16:45:40.433Z,10.22
2018-12-31T16:46:40.341Z,10.19
2018-12-31T16:47:40.322Z,10.19
2018-12-31T16:48:40.382Z,10.16
2018-12-31T16:49:40.809Z,10.16
2018-12-31T16:50:40.522Z,10.13
2018-12-31T16:51:40.577Z,10.13
2018-12-31T16:52:40.634Z,10.15
2018-12-31T16:53:40.699Z,10.22
2018-12-31T16:54:40.761Z,10.12
2018-12-31T16:55:40.930Z,10.22
2018-12-31T16:56:40.890Z,10.19
2018-12-31T16:57:40.947Z,10.13
2018-12-31T16:58:41.010Z,10.10
2018-12-31T16:59:41.070Z,10.16
2018-12-31T17:00:41.187Z,10.09
2018-12-31T17:01:41.198Z,10.12
2018-12-31T17:02:41.858Z,10.22
2018-12-31T17:03:41.322Z,10.12
2018-12-31T17:04:41.382Z,10.13
2018-12-31T17:05:41.455Z,10.15
2018-12-31T17:06:41.519Z,10.12
2018-12-31T17:07:41.575Z,10.10
2018-12-31T17:08:41.636Z,10.16
2018-12-31T17:09:41.698Z,10.10
2018-12-31T17:10:41.771Z,10.16
2018-12-31T17:11:41.830Z,10.22
2018-12-31T17:12:42.511Z,10.12
2018-12-31T17:13:41.951Z,10.12
2018-12-31T17:14:42.017Z,10.17
2018-12-31T17:15:42.172Z,10.17
2018-12-31T17:16:42.135Z,10.22
2018-12-31T17:17:42.199Z,10.12
2018-12-31T17:18:42.263Z,10.15
2018-12-31T17:19:42.323Z,10.20
2018-12-31T17:20:42.396Z,10.05
2018-12-31T17:21:42.455Z,10.22
2018-12-31T17:22:42.516Z,10.13
2018-12-31T17:23:42.575Z,10.17
2018-12-31T17:24:42.640Z,10.19
2018-12-31T17:25:42.704Z,10.13
2018-12-31T17:26:42.776Z,10.09
2018-12-31T17:27:42.828Z,10.12
2018-12-31T17:28:42.888Z,10.05
2018-12-31T17:29:42.952Z,10.19
2018-12-31T17:30:43.022Z,10.13
2018-12-31T17:31:43.088Z,10.10
2018-12-31T17:32:43.140Z,10.13
2018-12-31T17:33:43.203Z,10.13
2018-12-31T17:34:43.267Z,10.10
2018-12-31T17:35:43.332Z,10.09
2018-12-31T17:36:43.396Z,10.13
2018-12-31T17:37:43.456Z,10.04
2018-12-31T17:38:43.515Z,10.09
2018-12-31T17:39:43.576Z,10.10
2018-12-31T17:40:43.648Z,10.07
2018-12-31T17:41:43.708Z,10.16
2018-12-31T17:42:43.764Z,10.16
2018-12-31T17:43:43.830Z,10.15
2018-12-31T17:44:43.888Z,10.07
2018-12-31T17:45:43.961Z,10.10
2018-12-31T17:46:44.022Z,10.12
2018-12-31T17:47:44.081Z,10.12
2018-12-31T17:48:44.137Z,10.10
2018-12-31T17:49:44.201Z,10.10
2018-12-31T17:50:44.265Z,10.15
2018-12-31T17:51:44.450Z,10.15
2018-12-31T17:52:44.389Z,10.10
2018-12-31T17:53:44.453Z,10.10
2018-12-31T17:54:44.513Z,10.12
2018-12-31T17:55:44.577Z,10.13
2018-12-31T17:56:44.645Z,10.07
2018-12-31T17:57:44.713Z,10.10
2018-12-31T17:58:44.765Z,10.09
2018-12-31T17:59:44.829Z,10.07
2018-12-31T18:00:44.889Z,10.04
2018-12-31T18:01:44.957Z,10.05
2018-12-31T18:02:45.022Z,10.10
2018-12-31T18:03:45.077Z,10.13
2018-12-31T18:04:45.137Z,10.04
2018-12-31T18:05:45.202Z,10.05
2018-12-31T18:06:45.302Z,10.07
2018-12-31T18:07:45.333Z,10.09
2018-12-31T18:08:45.387Z,10.12
2018-12-31T18:09:45.450Z,10.04
2018-12-31T18:10:45.515Z,10.05
2018-12-31T18:11:45.582Z,10.13
2018-12-31T18:12:45.646Z,10.15
2018-12-31T18:13:45.698Z,10.07
2018-12-31T18:14:45.762Z,10.05
2018-12-31T18:15:45.826Z,10.10
2018-12-31T18:16:45.895Z,10.07
2018-12-31T18:17:45.958Z,10.12
2018-12-31T18:18:46.038Z,10.05
2018-12-31T18:19:46.075Z,10.12
2018-12-31T18:20:46.141Z,10.07
2018-12-31T18:21:46.223Z,10.13
2018-12-31T18:22:46.259Z,10.10
2018-12-31T18:23:46.323Z,10.10
2018-12-31T18:24:46.383Z,10.05
2018-12-31T18:25:46.447Z,10.13
2018-12-31T18:26:46.547Z,10.05
2018-12-31T18:27:46.579Z,10.04
2018-12-31T18:28:46.640Z,10.12
2018-12-31T18:29:46.697Z,10.07
2018-12-31T18:30:46.759Z,10.07
2018-12-31T18:31:46.827Z,10.01
2018-12-31T18:32:46.892Z,9.99
2018-12-31T18:33:46.948Z,10.09
2018-12-31T18:34:47.012Z,10.01
2018-12-31T18:35:47.071Z,10.02
2018-12-31T18:36:47.188Z,10.01
2018-12-31T18:37:47.195Z,10.01
2018-12-31T18:38:47.255Z,10.02
2018-12-31T18:39:49.412Z,10.02
2018-12-31T18:40:47.380Z,10.07
2018-12-31T18:41:47.453Z,10.02
2018-12-31T18:42:47.532Z,10.02
2018-12-31T18:43:47.568Z,9.99
2018-12-31T18:44:47.629Z,10.04
2018-12-31T18:45:47.693Z,10.05
2018-12-31T18:46:47.760Z,9.99
2018-12-31T18:47:47.824Z,10.01
2018-12-31T18:48:47.881Z,10.01
2018-12-31T18:49:47.940Z,10.04
2018-12-31T18:50:48.004Z,10.05
2018-12-31T18:51:49.006Z,10.04
2018-12-31T18:52:48.192Z,10.05
2018-12-31T18:53:48.189Z,10.01
2018-12-31T18:54:48.252Z,10.01
2018-12-31T18:55:48.317Z,9.99
2018-12-31T18:56:48.386Z,9.92
2018-12-31T18:57:48.445Z,9.99
2018-12-31T18:58:48.501Z,9.89
2018-12-31T18:59:48.567Z,9.86
2018-12-31T19:00:48.625Z,9.86
2018-12-31T19:01:48.697Z,9.92
2018-12-31T19:02:48.757Z,9.84
2018-12-31T19:03:48.813Z,9.87
2018-12-31T19:04:48.873Z,9.86
2018-12-31T19:05:48.940Z,9.83
2018-12-31T19:06:49.005Z,9.86
2018-12-31T19:07:49.069Z,9.83
2018-12-31T19:08:49.138Z,9.86
2018-12-31T19:09:49.186Z,9.84
2018-12-31T19:10:49.250Z,9.80
2018-12-31T19:11:49.325Z,9.84
2018-12-31T19:12:49.374Z,9.86
2018-12-31T19:13:49.434Z,9.79
2018-12-31T19:14:49.505Z,9.84
2018-12-31T19:15:49.566Z,9.89
2018-12-31T19:16:49.626Z,9.86
2018-12-31T19:17:49.690Z,9.84
2018-12-31T19:18:49.746Z,9.84
2018-12-31T19:19:49.806Z,9.87
2018-12-31T19:20:49.870Z,9.84
2018-12-31T19:21:49.942Z,9.86
2018-12-31T19:22:50.008Z,9.86
2018-12-31T19:23:50.058Z,9.82
2018-12-31T19:24:50.118Z,9.84
2018-12-31T19:25:50.183Z,9.74
2018-12-31T19:26:50.287Z,9.76
2018-12-31T19:27:50.314Z,9.69
2018-12-31T19:28:50.366Z,9.66
2018-12-31T19:29:50.430Z,9.66
2018-12-31T19:30:50.494Z,9.72
2018-12-31T19:31:50.562Z,9.64
2018-12-31T19:32:50.622Z,9.62
2018-12-31T19:33:50.684Z,9.62
2018-12-31T19:34:50.760Z,9.62
2018-12-31T19:35:50.802Z,9.62
2018-12-31T19:36:50.870Z,9.68
2018-12-31T19:37:50.935Z,9.65
2018-12-31T19:38:50.990Z,9.61
2018-12-31T19:39:51.051Z,9.62
2018-12-31T19:40:51.115Z,9.56
2018-12-31T19:41:51.283Z,9.48
2018-12-31T19:42:51.238Z,9.51
2018-12-31T19:43:51.299Z,9.56
2018-12-31T19:44:51.363Z,9.65
2018-12-31T19:45:51.422Z,9.64
2018-12-31T19:46:51.495Z,9.50
2018-12-31T19:47:51.557Z,9.54
2018-12-31T19:48:51.611Z,9.54
2018-12-31T19:49:51.672Z,9.58
2018-12-31T19:50:51.739Z,9.51
2018-12-31T19:51:51.807Z,9.56
2018-12-31T19:52:51.868Z,9.62
2018-12-31T19:53:51.924Z,9.54
2018-12-31T19:54:51.984Z,9.62
2018-12-31T19:55:52.048Z,9.51
2018-12-31T19:56:52.292Z,9.56
2018-12-31T19:57:52.176Z,9.54
2018-12-31T19:58:52.232Z,9.56
2018-12-31T19:59:52.304Z,9.55
2018-12-31T20:00:52.364Z,9.58
2018-12-31T20:01:52.431Z,9.59
2018-12-31T20:02:52.491Z,9.61
2018-12-31T20:03:52.543Z,9.51
2018-12-31T20:04:52.607Z,9.62
2018-12-31T20:05:52.668Z,9.56
2018-12-31T20:06:52.736Z,9.59
2018-12-31T20:07:52.800Z,9.55
2018-12-31T20:08:52.852Z,9.59
2018-12-31T20:09:52.920Z,9.59
2018-12-31T20:10:52.982Z,9.56
2018-12-31T20:11:53.048Z,9.62
2018-12-31T20:12:53.112Z,9.59
2018-12-31T20:13:53.164Z,9.56
2018-12-31T20:14:53.225Z,9.54
2018-12-31T20:15:53.293Z,9.48
2018-12-31T20:16:53.356Z,9.48
2018-12-31T20:17:53.421Z,9.48
2018-12-31T20:18:53.476Z,9.46
2018-12-31T20:19:53.536Z,9.44
2018-12-31T20:20:53.596Z,9.48
2018-12-31T20:21:53.668Z,9.36
2018-12-31T20:22:54.178Z,9.40
2018-12-31T20:23:53.784Z,9.36
2018-12-31T20:24:53.845Z,9.44
2018-12-31T20:25:53.909Z,9.37
2018-12-31T20:26:53.977Z,9.43
2018-12-31T20:27:54.041Z,9.36
2018-12-31T20:28:54.092Z,9.32
2018-12-31T20:29:54.157Z,9.37
2018-12-31T20:30:54.221Z,9.34
2018-12-31T20:31:54.280Z,9.21
2018-12-31T20:32:54.604Z,9.36
2018-12-31T20:33:54.405Z,9.22
2018-12-31T20:34:54.469Z,9.21
2018-12-31T20:35:54.529Z,9.28
2018-12-31T20:36:54.593Z,9.29
2018-12-31T20:37:54.661Z,9.28
2018-12-31T20:38:54.727Z,9.18
2018-12-31T20:39:54.777Z,9.21
2018-12-31T20:40:54.841Z,9.21
2018-12-31T20:41:54.903Z,9.22
2018-12-31T20:42:54.973Z,9.19
2018-12-31T20:43:55.034Z,9.19
2018-12-31T20:44:55.093Z,9.36
2018-12-31T20:45:55.150Z,9.25
2018-12-31T20:46:55.218Z,9.29
2018-12-31T20:48:01.817Z,9.28
2018-12-31T20:48:55.371Z,9.19
2018-12-31T20:49:55.398Z,9.25
2018-12-31T20:50:55.461Z,9.21
2018-12-31T20:51:55.521Z,9.26
2018-12-31T20:52:55.586Z,9.21
2018-12-31T20:53:55.654Z,9.22
2018-12-31T20:54:55.718Z,9.25
2018-12-31T20:55:55.775Z,9.25
2018-12-31T20:56:55.907Z,9.21
2018-12-31T20:57:55.894Z,9.19
2018-12-31T20:58:55.966Z,9.22
2018-12-31T20:59:56.029Z,9.21
2018-12-31T21:00:56.086Z,9.19
2018-12-31T21:01:56.154Z,9.19
2018-12-31T21:02:56.274Z,9.26
2018-12-31T21:03:56.399Z,9.25
2018-12-31T21:04:56.331Z,9.26
2018-12-31T21:05:56.395Z,9.18
2018-12-31T21:06:56.455Z,9.25
2018-12-31T21:07:56.519Z,9.25
2018-12-31T21:08:56.587Z,9.21
2018-12-31T21:09:56.646Z,9.26
2018-12-31T21:10:56.703Z,9.23
2018-12-31T21:11:56.772Z,9.26
2018-12-31T21:12:56.827Z,9.21
2018-12-31T21:13:56.898Z,9.21
2018-12-31T21:14:56.962Z,9.22
2018-12-31T21:15:57.015Z,9.28
2018-12-31T21:16:57.076Z,9.21
2018-12-31T21:17:57.135Z,9.19
2018-12-31T21:18:57.199Z,9.25
2018-12-31T21:19:57.451Z,9.31
2018-12-31T21:20:57.323Z,9.34
2018-12-31T21:21:57.383Z,9.29
2018-12-31T21:22:57.447Z,9.32
2018-12-31T21:23:57.508Z,9.32
2018-12-31T21:24:57.669Z,9.31
2018-12-31T21:25:58.640Z,9.36
2018-12-31T21:26:57.696Z,9.32
2018-12-31T21:27:57.760Z,9.34
2018-12-31T21:28:57.820Z,9.32
2018-12-31T21:29:57.884Z,9.29
2018-12-31T21:30:57.953Z,9.31
2018-12-31T21:31:58.017Z,9.31
2018-12-31T21:32:58.068Z,9.34
2018-12-31T21:33:58.132Z,9.34
2018-12-31T21:34:58.192Z,9.32
2018-12-31T21:35:58.370Z,9.31
2018-12-31T21:36:58.312Z,9.34
2018-12-31T21:37:58.376Z,9.32
2018-12-31T21:38:58.436Z,9.37
2018-12-31T21:39:58.500Z,9.36
2018-12-31T21:40:58.572Z,9.32
2018-12-31T21:41:58.633Z,9.36
2018-12-31T21:42:58.685Z,9.43
2018-12-31T21:43:58.748Z,9.36
2018-12-31T21:44:58.809Z,9.36
2018-12-31T21:45:58.876Z,9.31
2018-12-31T21:46:58.941Z,9.31
2018-12-31T21:47:58.997Z,9.31
2018-12-31T21:48:59.057Z,9.40
2018-12-31T21:49:59.123Z,9.32
2018-12-31T21:50:59.289Z,9.40
2018-12-31T21:51:59.241Z,9.29
2018-12-31T21:52:59.309Z,9.36
2018-12-31T21:53:59.369Z,9.36
2018-12-31T21:54:59.433Z,9.36
2018-12-31T21:55:59.498Z,9.39
2018-12-31T21:56:59.561Z,9.37
2018-12-31T21:57:59.613Z,9.34
2018-12-31T21:58:59.689Z,9.43
2018-12-31T21:59:59.737Z,9.41
2018-12-31T22:00:59.888Z,9.39
2018-12-31T22:01:59.869Z,9.37
2018-12-31T22:02:59.925Z,9.41
2018-12-31T22:03:59.986Z,9.39
2018-12-31T22:05:00.091Z,9.37
2018-12-31T22:06:00.145Z,9.36
2018-12-31T22:07:00.173Z,9.37
2018-12-31T22:08:00.234Z,9.43
2018-12-31T22:09:00.298Z,9.39
2018-12-31T22:10:00.357Z,9.40
2018-12-31T22:11:00.428Z,9.37
2018-12-31T22:12:00.598Z,9.48
2018-12-31T22:13:00.541Z,9.47
2018-12-31T22:14:00.606Z,9.46
2018-12-31T22:15:00.670Z,9.50
2018-12-31T22:16:00.779Z,9.46
2018-12-31T22:17:00.799Z,9.43
2018-12-31T22:18:00.850Z,9.40
2018-12-31T22:19:00.914Z,9.37
2018-12-31T22:20:00.974Z,9.44
2018-12-31T22:21:01.050Z,9.46
2018-12-31T22:22:01.111Z,9.41
2018-12-31T22:23:01.167Z,9.48
2018-12-31T22:24:01.222Z,9.43
2018-12-31T22:25:01.290Z,9.40
2018-12-31T22:26:01.354Z,9.40
2018-12-31T22:27:01.415Z,9.40
2018-12-31T22:28:01.471Z,9.40
2018-12-31T22:29:01.534Z,9.46
2018-12-31T22:30:01.651Z,9.40
2018-12-31T22:31:01.670Z,9.44
2018-12-31T22:32:01.726Z,9.39
2018-12-31T22:33:01.779Z,9.40
2018-12-31T22:34:01.863Z,9.46
2018-12-31T22:35:01.907Z,9.40
2018-12-31T22:36:01.971Z,9.41
2018-12-31T22:37:02.034Z,9.41
2018-12-31T22:38:02.088Z,9.40
2018-12-31T22:39:02.155Z,9.37
2018-12-31T22:40:02.212Z,9.39
2018-12-31T22:41:02.275Z,9.36
2018-12-31T22:42:02.450Z,9.43
2018-12-31T22:43:02.399Z,9.50
2018-12-31T22:44:02.459Z,9.46
2018-12-31T22:45:02.523Z,9.46
2018-12-31T22:46:02.585Z,9.46
2018-12-31T22:47:02.652Z,9.47
2018-12-31T22:48:02.716Z,9.48
2018-12-31T22:49:03.532Z,9.48
2018-12-31T22:50:02.833Z,9.54
2018-12-31T22:51:02.892Z,9.47
2018-12-31T22:52:02.963Z,9.54
2018-12-31T22:53:03.024Z,9.54
2018-12-31T22:54:03.079Z,9.51
2018-12-31T22:55:03.140Z,9.58
2018-12-31T22:56:03.206Z,9.56
2018-12-31T22:57:03.376Z,9.56
2018-12-31T22:58:03.323Z,9.58
2018-12-31T22:59:03.388Z,9.54
2018-12-31T23:00:03.448Z,9.51
2018-12-31T23:01:03.516Z,9.59
2018-12-31T23:02:03.580Z,9.59
2018-12-31T23:03:03.642Z,9.58
2018-12-31T23:04:03.696Z,9.51
2018-12-31T23:05:03.758Z,9.56
2018-12-31T23:06:03.825Z,9.58
2018-12-31T23:07:03.888Z,9.48
2018-12-31T23:08:03.953Z,9.46
2018-12-31T23:09:04.004Z,9.58
2018-12-31T23:10:04.066Z,9.50
2018-12-31T23:11:04.128Z,9.51
2018-12-31T23:12:04.198Z,9.44
2018-12-31T23:13:04.305Z,9.46
2018-12-31T23:14:04.312Z,9.51
2018-12-31T23:15:04.455Z,9.48
2018-12-31T23:16:04.437Z,9.46
2018-12-31T23:17:04.496Z,9.50
2018-12-31T23:18:04.566Z,9.50
2018-12-31T23:19:04.628Z,9.54
2018-12-31T23:20:04.680Z,9.48
2018-12-31T23:21:04.741Z,9.44
2018-12-31T23:22:04.805Z,9.46
2018-12-31T23:23:04.872Z,9.47
2018-12-31T23:24:04.937Z,9.46
2018-12-31T23:25:04.989Z,9.47
2018-12-31T23:26:05.052Z,9.46
2018-12-31T23:27:05.117Z,9.44
2018-12-31T23:28:05.173Z,9.48
2018-12-31T23:29:05.281Z,9.47
2018-12-31T23:30:05.300Z,9.46
2018-12-31T23:31:05.358Z,9.44
2018-12-31T23:32:05.425Z,9.44
2018-12-31T23:33:05.481Z,9.46
2018-12-31T23:34:05.553Z,9.40
2018-12-31T23:35:05.613Z,9.36
2018-12-31T23:36:05.665Z,9.40
2018-12-31T23:37:05.729Z,9.37
2018-12-31T23:38:05.789Z,9.34
2018-12-31T23:39:05.864Z,9.37
2018-12-31T23:40:05.925Z,9.39
2018-12-31T23:41:05.973Z,9.39
2018-12-31T23:42:06.037Z,9.40
2018-12-31T23:43:06.690Z,9.39
2018-12-31T23:44:06.286Z,9.34
2018-12-31T23:45:06.227Z,9.40
2018-12-31T23:46:06.282Z,9.46
2018-12-31T23:47:06.345Z,9.44
2018-12-31T23:48:06.406Z,9.41
2018-12-31T23:49:06.474Z,9.41
2018-12-31T23:50:06.538Z,9.41
2018-12-31T23:51:06.590Z,9.39
2018-12-31T23:52:06.654Z,9.40
2018-12-31T23:53:06.716Z,9.41
2018-12-31T23:54:06.782Z,9.40
2018-12-31T23:55:06.850Z,9.29
2018-12-31T23:56:06.899Z,9.32
2018-12-31T23:57:06.960Z,9.34
2018-12-31T23:58:07.022Z,9.29
2018-12-31T23:59:07.226Z,9.32
